Time;durP1;ratioP1;P1;durP2;ratioP2;P2;SDS_P1;SDS_P2;PMS_P1;PMS_P2;Temp;Humidity;BMP_temperature;BMP_pressure;BME280_temperature;BME280_humidity;BME280_pressure;Samples;Min_cycle;Max_cycle;Signal;HPM_P1;HPM_P2
2022/05/02 05:11:54;;;;;;;45.88;22.42;;;;;;;11.41;66.13;100981.94;1793666;76;20975;-70
2022/05/02 05:18:13;;;;;;;39.40;21.33;;;;;;;12.09;65.45;100985.33;1774751;80;21592;-70
2022/05/02 05:21:07;;;;;;;39.08;21.25;;;;;;;12.34;65.16;100981.68;1792848;78;21047;-70
2022/05/02 05:24:02;;;;;;;39.15;19.02;;;;;;;12.43;64.74;100983.83;1797801;78;21514;-70
2022/05/02 05:26:56;;;;;;;30.15;15.80;;;;;;;12.56;64.47;100984.69;1771291;80;21683;-71
2022/05/02 05:29:42;;;;;;;23.90;13.98;;;;;;;13.09;64.03;100976.90;1760807;80;20997;-71
2022/05/02 05:32:40;;;;;;;19.65;13.25;;;;;;;13.37;63.66;100973.31;1787533;79;21091;-71
2022/05/02 05:35:08;;;;;;;21.33;13.32;;;;;;;12.86;62.95;100970.58;1742855;79;20975;-71
2022/05/02 05:37:43;;;;;;;37.35;17.15;;;;;;;12.54;62.54;100958.08;1762638;79;21034;-70
2022/05/02 05:40:31;;;;;;;26.37;14.73;;;;;;;12.68;62.43;100972.61;1729969;80;21503;-71
2022/05/02 05:43:08;;;;;;;22.93;14.78;;;;;;;13.05;62.02;100968.87;1752209;79;21499;-71
2022/05/02 05:46:23;;;;;;;17.07;12.07;;;;;;;13.05;62.02;100968.87;1726501;83;20998;-71
2022/05/02 05:49:16;;;;;;;19.95;10.88;;;;;;;13.38;61.53;100977.14;1741724;82;21024;-71
2022/05/02 05:51:48;;;;;;;24.12;12.43;;;;;;;13.72;61.08;100975.98;1745488;80;21011;-71
2022/05/02 05:54:44;;;;;;;15.50;10.68;;;;;;;13.89;60.64;100976.22;1785439;79;21161;-71
2022/05/02 05:57:41;;;;;;;22.42;10.43;;;;;;;13.96;60.32;100974.49;1782624;79;20982;-71
2022/05/02 06:00:11;;;;;;;18.82;10.63;;;;;;;14.32;60.09;100972.86;1754789;79;21014;-71
2022/05/02 06:03:14;;;;;;;15.58;9.60;;;;;;;14.67;59.67;100975.44;1770012;79;20987;-71
2022/05/02 06:05:46;;;;;;;21.25;13.08;;;;;;;14.96;59.29;100975.48;1760364;79;21038;-71
2022/05/02 06:08:20;;;;;;;20.40;12.23;;;;;;;15.37;58.81;100969.16;1779263;79;21336;-71
2022/05/02 06:10:47;;;;;;;22.65;12.82;;;;;;;15.54;58.41;100973.00;1738133;81;21015;-71
2022/05/02 06:13:18;;;;;;;21.40;13.28;;;;;;;15.42;57.95;100972.59;1718556;82;21083;-71
2022/05/02 06:18:35;;;;;;;18.23;10.18;;;;;;;15.45;57.55;100973.06;1721059;82;21484;-71
2022/05/02 06:21:06;;;;;;;14.33;9.70;;;;;;;15.20;57.13;100978.41;1748055;81;21138;-71
2022/05/02 06:23:41;;;;;;;14.98;8.95;;;;;;;15.11;56.90;100980.88;1758353;79;21483;-71
2022/05/02 06:26:07;;;;;;;11.85;8.63;;;;;;;15.22;56.65;100984.44;1760287;79;21026;-71
2022/05/02 06:28:41;;;;;;;12.88;9.15;;;;;;;15.29;56.46;100977.81;1778223;80;20942;-71
2022/05/02 06:31:21;;;;;;;15.08;9.55;;;;;;;15.38;56.22;100982.89;1767357;80;21002;-71
2022/05/02 06:33:49;;;;;;;14.58;8.98;;;;;;;15.34;55.86;100981.59;1752582;81;21122;-71
2022/05/02 06:36:33;;;;;;;16.82;9.83;;;;;;;15.36;55.64;100979.57;1766457;79;21467;-71
2022/05/02 06:39:11;;;;;;;14.60;9.35;;;;;;;15.33;55.41;100982.63;1743746;80;20995;-71
2022/05/02 06:42:07;;;;;;;16.85;10.58;;;;;;;15.40;55.10;100980.87;1746919;80;21047;-71
2022/05/02 06:44:47;;;;;;;14.47;9.40;;;;;;;15.22;54.92;100972.86;1766232;80;20994;-71
2022/05/02 06:47:42;;;;;;;14.70;9.28;;;;;;;15.55;54.80;100978.70;1746568;81;21658;-71
2022/05/02 06:50:08;;;;;;;15.53;9.40;;;;;;;15.84;54.54;100979.45;1750397;80;21002;-72
2022/05/02 06:53:03;;;;;;;14.25;9.68;;;;;;;15.85;54.15;100969.03;1770473;80;21454;-73
2022/05/02 06:55:49;;;;;;;15.75;9.73;;;;;;;15.98;53.95;100975.05;1744745;80;20968;-72
2022/05/02 06:58:27;;;;;;;15.50;10.63;;;;;;;16.24;53.82;100973.15;1752960;80;21031;-73
2022/05/02 07:01:07;;;;;;;19.50;10.70;;;;;;;16.52;53.49;100970.50;1755472;80;21149;-72
2022/05/02 07:03:54;;;;;;;14.40;10.43;;;;;;;16.56;53.16;100967.77;1762439;80;20990;-72
2022/05/02 07:06:33;;;;;;;17.50;9.90;;;;;;;16.60;52.93;100975.78;1699524;83;21677;-72
2022/05/02 07:09:04;;;;;;;;;;;;;;;16.74;52.64;100969.47;1718959;80;21002;-72
2022/05/02 07:11:54;;;;;;;12.03;8.28;;;;;;;16.66;52.26;100975.00;1753408;80;20195;-72
2022/05/02 07:14:24;;;;;;;;;;;;;;;16.69;52.11;100975.95;1766743;80;21220;-72
2022/05/02 07:16:50;;;;;;;11.15;8.23;;;;;;;16.63;51.75;100968.66;1750184;80;20158;-72
2022/05/02 07:20:02;;;;;;;11.28;7.55;;;;;;;16.60;51.52;100971.23;1775327;80;21000;-72
2022/05/02 07:22:35;;;;;;;12.37;8.15;;;;;;;16.55;51.24;100972.80;1755175;80;21434;-71
2022/05/02 07:25:14;;;;;;;15.18;8.93;;;;;;;16.70;51.02;100972.23;1751465;80;21460;-72
2022/05/02 07:28:06;;;;;;;14.03;7.33;;;;;;;16.79;50.77;100966.49;1761093;80;21236;-72
2022/05/02 07:30:32;;;;;;;14.70;7.00;;;;;;;16.98;50.57;100964.97;1759299;80;21009;-72
2022/05/02 07:32:58;;;;;;;14.98;7.55;;;;;;;17.11;50.16;100962.34;1755363;80;21471;-72
2022/05/02 07:35:24;;;;;;;11.65;7.08;;;;;;;17.17;49.89;100965.59;1756139;79;21035;-72
2022/05/02 07:37:50;;;;;;;11.73;6.22;;;;;;;17.35;49.62;100956.46;1749818;80;21484;-71
2022/05/02 07:40:21;;;;;;;12.07;6.75;;;;;;;17.46;49.26;100959.10;1700317;82;21829;-71
2022/05/02 07:42:47;;;;;;;12.82;6.92;;;;;;;17.57;48.97;100952.33;1742499;79;21065;-72
2022/05/02 07:45:14;;;;;;;14.40;7.33;;;;;;;17.82;48.69;100962.90;1760549;79;20998;-72
2022/05/02 07:47:47;;;;;;;11.18;6.25;;;;;;;17.83;48.27;100960.52;1726331;81;21673;-73
2022/05/02 07:50:13;;;;;;;16.27;7.10;;;;;;;17.99;48.12;100961.48;1719414;81;21521;-71
2022/05/02 07:52:40;;;;;;;9.98;6.83;;;;;;;18.10;47.76;100959.55;1755062;80;21951;-72
2022/05/02 07:55:08;;;;;;;9.70;6.50;;;;;;;18.24;47.46;100963.92;1767100;79;21003;-72
2022/05/02 07:57:37;;;;;;;8.33;5.22;;;;;;;18.35;47.08;100971.93;1773359;79;21461;-72
2022/05/02 08:00:03;;;;;;;14.70;5.47;;;;;;;18.14;46.48;100968.90;1753190;79;21058;-72
2022/05/02 08:02:29;;;;;;;10.78;6.12;;;;;;;18.07;46.12;100976.16;1739915;81;21013;-72
2022/05/02 08:04:56;;;;;;;10.48;4.50;;;;;;;18.03;45.64;100968.14;1705308;79;22346;-72
2022/05/02 08:07:38;;;;;;;10.78;5.00;;;;;;;18.08;45.31;100966.19;1748164;80;47812;-73
2022/05/02 08:10:45;;;;;;;7.97;4.87;;;;;;;18.15;44.96;100967.88;1757171;80;21617;-72
2022/05/02 08:13:26;;;;;;;6.50;4.10;;;;;;;18.35;44.62;100964.66;1741725;80;21005;-73
2022/05/02 08:16:00;;;;;;;5.53;4.30;;;;;;;18.57;44.23;100967.20;1758299;79;21501;-73
2022/05/02 08:19:03;;;;;;;7.58;4.70;;;;;;;18.58;43.81;100962.12;1748465;80;21511;-73
2022/05/02 08:21:44;;;;;;;8.43;4.72;;;;;;;18.50;43.32;100958.23;1749373;80;21031;-72
2022/05/02 08:27:44;;;;;;;10.03;4.87;;;;;;;18.34;42.50;100958.95;1742400;80;21501;-73
2022/05/02 08:30:23;;;;;;;8.40;4.40;;;;;;;18.30;42.26;100961.73;1751111;79;21059;-72
2022/05/02 08:33:01;;;;;;;6.50;4.75;;;;;;;18.26;42.01;100962.37;1753845;79;21858;-72
2022/05/02 08:35:52;;;;;;;7.08;5.50;;;;;;;18.35;41.95;100960.61;1744724;79;21372;-73
2022/05/02 08:38:36;;;;;;;9.90;7.62;;;;;;;18.55;41.84;100958.45;1748960;79;21501;-73
2022/05/02 08:41:33;;;;;;;23.83;15.43;;;;;;;18.46;41.41;100960.00;1749071;79;21048;-73
2022/05/02 08:44:08;;;;;;;14.93;6.35;;;;;;;18.41;41.44;100958.43;1749554;80;21468;-73
2022/05/02 08:47:05;;;;;;;11.05;6.28;;;;;;;18.66;41.39;100954.61;1752663;79;21154;-73
2022/05/02 08:50:17;;;;;;;10.53;5.05;;;;;;;18.72;41.25;100955.64;1754343;80;21031;-73
2022/05/02 08:53:13;;;;;;;8.33;5.40;;;;;;;18.67;41.08;100955.45;1752706;80;21051;-72
2022/05/02 08:56:04;;;;;;;7.58;5.35;;;;;;;18.40;40.81;100955.95;1751441;80;21055;-72
2022/05/02 08:58:56;;;;;;;7.65;4.83;;;;;;;18.40;40.81;100949.20;1748711;80;21022;-72
2022/05/02 09:02:20;;;;;;;7.10;4.97;;;;;;;18.47;40.74;100939.23;1748266;80;21216;-72
2022/05/02 09:05:10;;;;;;;6.28;4.78;;;;;;;18.43;40.68;100936.11;1739635;81;21034;-72
2022/05/02 09:08:08;;;;;;;5.70;4.97;;;;;;;18.54;40.56;100935.20;1730123;80;21060;-72
2022/05/02 09:11:31;;;;;;;11.35;6.92;;;;;;;18.58;40.54;100932.40;1734838;80;21043;-72
2022/05/02 09:13:58;;;;;;;9.75;5.78;;;;;;;18.73;40.45;100931.64;1736384;80;21068;-72
2022/05/02 09:16:41;;;;;;;10.60;5.42;;;;;;;18.71;40.36;100935.08;1747347;80;22145;-72
2022/05/02 09:19:38;;;;;;;8.90;5.55;;;;;;;18.76;40.23;100937.45;1735567;80;21071;-72
2022/05/02 09:22:26;;;;;;;8.98;5.47;;;;;;;18.62;40.08;100933.61;1745419;80;21552;-72
2022/05/02 09:25:08;;;;;;;9.00;4.78;;;;;;;18.62;39.98;100936.31;1731996;80;21076;-72
2022/05/02 09:27:52;;;;;;;10.70;5.17;;;;;;;18.67;39.93;100932.48;1734925;80;21037;-72
2022/05/02 09:30:41;;;;;;;7.40;4.90;;;;;;;18.77;39.89;100923.42;1750859;80;21806;-71
2022/05/02 09:33:19;;;;;;;8.33;5.00;;;;;;;18.80;39.74;100925.70;1741332;80;21999;-74
2022/05/02 09:36:04;;;;;;;7.80;5.25;;;;;;;18.63;39.55;100919.91;1743422;80;21015;-72
2022/05/02 09:38:44;;;;;;;9.05;4.67;;;;;;;18.55;39.50;100923.34;1753015;80;21560;-72
2022/05/02 09:41:37;;;;;;;7.58;4.50;;;;;;;18.55;39.39;100920.63;1741081;80;21016;-72
2022/05/02 09:51:26;;;;;;;6.05;4.12;;;;;;;18.76;39.20;100914.48;1742302;80;21067;-72
2022/05/02 09:57:22;;;;;;;8.80;4.22;;;;;;;18.65;38.91;100909.71;1743284;80;21517;-72
2022/05/02 10:01:06;;;;;;;6.55;5.00;;;;;;;18.53;38.61;100905.17;1740783;80;21154;-73
2022/05/02 10:02:21;;;;;;;9.28;4.67;;;;;;;18.56;38.65;100904.75;1735472;80;21023;-72
2022/05/02 10:05:07;;;;;;;8.20;4.37;;;;;;;18.68;38.70;100899.83;1742620;80;21074;-71
2022/05/02 10:07:46;;;;;;;8.08;4.30;;;;;;;18.82;38.69;100900.11;1742976;80;21020;-72
2022/05/02 10:10:27;;;;;;;7.58;4.60;;;;;;;18.80;38.52;100901.37;1734482;80;21498;-73
2022/05/02 10:13:12;;;;;;;8.05;5.15;;;;;;;18.82;38.45;100893.91;1730439;82;21141;-72
2022/05/02 10:15:55;;;;;;;8.35;5.12;;;;;;;18.85;38.44;100890.78;1748473;80;21542;-72
2022/05/02 10:18:32;;;;;;;6.72;4.97;;;;;;;18.89;38.44;100892.02;1750506;81;21022;-72
2022/05/02 10:21:13;;;;;;;10.80;5.87;;;;;;;19.04;38.46;100891.22;1730010;82;21515;-72
2022/05/02 10:24:20;;;;;;;7.37;4.20;;;;;;;19.04;38.34;100884.98;1748933;81;21015;-72
2022/05/02 10:27:03;;;;;;;8.85;4.50;;;;;;;19.17;38.30;100883.09;1722438;83;21155;-72
2022/05/02 10:30:12;;;;;;;7.40;4.20;;;;;;;19.07;38.08;100875.92;1721810;83;21018;-72
2022/05/02 10:32:56;;;;;;;8.80;4.42;;;;;;;19.00;38.08;100881.07;1742507;81;21011;-73
2022/05/02 10:35:25;;;;;;;6.65;4.15;;;;;;;18.88;37.94;100871.43;1746850;81;21023;-72
2022/05/02 10:38:03;;;;;;;8.13;4.10;;;;;;;18.78;37.70;100871.05;1712033;83;21068;-72
2022/05/02 10:40:38;;;;;;;6.92;3.92;;;;;;;18.75;37.76;100859.31;1747517;81;21390;-72
2022/05/02 10:43:07;;;;;;;10.48;3.98;;;;;;;18.92;37.77;100853.75;1727958;81;21893;-72
2022/05/02 10:45:39;;;;;;;9.13;5.00;;;;;;;18.98;37.70;100855.59;1740891;81;21015;-72
2022/05/02 10:48:27;;;;;;;7.75;4.25;;;;;;;19.04;37.63;100857.95;1735785;80;21020;-72
2022/05/02 10:51:09;;;;;;;11.03;4.53;;;;;;;18.99;37.46;100859.96;1736797;82;21035;-72
2022/05/02 10:53:59;;;;;;;9.68;4.85;;;;;;;18.94;37.37;100852.48;1737369;81;21059;-71
2022/05/02 10:56:43;;;;;;;5.70;4.37;;;;;;;18.88;37.34;100850.64;1725429;82;21088;-72
2022/05/02 10:59:14;;;;;;;5.97;5.05;;;;;;;18.96;37.31;100844.17;1748605;80;21067;-72
2022/05/02 11:02:04;;;;;;;5.85;4.55;;;;;;;18.92;37.26;100851.88;1740751;80;21638;-73
2022/05/02 11:05:05;;;;;;;10.70;4.40;;;;;;;18.97;37.26;100841.76;1744317;80;21663;-73
2022/05/02 11:07:51;;;;;;;8.08;4.83;;;;;;;19.04;37.18;100848.48;1745761;80;21310;-72
2022/05/02 11:10:24;;;;;;;7.58;4.42;;;;;;;18.87;36.95;100837.33;1741369;80;20990;-72
2022/05/02 11:12:56;;;;;;;7.53;4.15;;;;;;;18.82;37.03;100837.16;1755581;81;21070;-73
2022/05/02 11:15:25;;;;;;;6.05;4.33;;;;;;;18.73;36.80;100837.06;1749857;79;21050;-72
2022/05/02 11:20:41;;;;;;;7.67;3.98;;;;;;;18.58;36.82;100827.05;1755099;79;20999;-73
2022/05/02 11:20:53;;;;;;;6.30;4.10;;;;;;;18.62;36.93;100833.66;1753223;79;21164;-73
2022/05/02 11:23:39;;;;;;;6.67;4.50;;;;;;;18.78;36.95;100827.81;1755354;79;21022;-73
2022/05/02 11:26:40;;;;;;;9.30;4.30;;;;;;;18.91;36.92;100826.40;1753814;79;21057;-72
2022/05/02 11:29:27;;;;;;;8.03;4.45;;;;;;;18.95;36.85;100826.28;1761846;79;21074;-73
2022/05/02 11:32:12;;;;;;;8.15;4.80;;;;;;;18.96;36.81;100822.00;1752860;81;21018;-73
2022/05/02 11:34:58;;;;;;;6.85;4.58;;;;;;;18.96;36.73;100818.50;1754269;81;21452;-73
2022/05/02 11:37:45;;;;;;;7.30;4.30;;;;;;;19.12;36.72;100812.59;1762230;79;21503;-73
2022/05/02 11:40:11;;;;;;;11.50;4.70;;;;;;;19.02;36.61;100809.52;1761095;79;21003;-73
2022/05/02 11:42:45;;;;;;;14.30;4.40;;;;;;;19.17;36.71;100814.13;1764763;80;21054;-73
2022/05/02 11:45:14;;;;;;;8.00;4.62;;;;;;;19.22;36.62;100814.30;1761104;80;21059;-73
2022/05/02 11:48:07;;;;;;;6.28;4.40;;;;;;;19.29;36.56;100811.03;1766993;79;21644;-73
2022/05/02 11:50:41;;;;;;;10.63;4.53;;;;;;;19.30;36.57;100804.59;1726094;83;21003;-73
2022/05/02 11:53:09;;;;;;;9.53;4.90;;;;;;;19.38;36.60;100802.98;1758586;80;21038;-73
2022/05/02 11:55:35;;;;;;;9.48;4.37;;;;;;;19.37;36.57;100799.14;1773991;79;21514;-73
2022/05/02 11:58:26;;;;;;;9.43;5.08;;;;;;;19.39;36.57;100792.45;1756239;81;21003;-73
2022/05/02 12:01:06;;;;;;;5.58;4.22;;;;;;;19.51;36.59;100793.98;1756374;79;21157;-73
2022/05/02 12:03:50;;;;;;;4.78;3.90;;;;;;;19.56;36.58;100790.63;1754849;81;21543;-73
2022/05/02 12:06:25;;;;;;;6.22;3.95;;;;;;;19.65;36.51;100786.59;1754691;79;21502;-73
2022/05/02 12:08:51;;;;;;;7.80;3.72;;;;;;;19.86;36.48;100776.74;1731308;81;21519;-73
2022/05/02 12:11:17;;;;;;;6.47;3.80;;;;;;;20.04;36.42;100777.31;1749079;79;21666;-73
2022/05/02 12:13:47;;;;;;;7.55;5.17;;;;;;;20.01;36.29;100773.18;1712381;82;21825;-73
2022/05/02 12:16:15;;;;;;;5.80;4.58;;;;;;;19.98;36.19;100765.51;1705468;82;21081;-73
2022/05/02 12:18:53;;;;;;;6.13;4.73;;;;;;;20.03;36.15;100761.59;1717335;82;21754;-73
2022/05/02 12:21:46;;;;;;;8.88;5.12;;;;;;;20.08;36.12;100764.99;1714807;81;21520;-73
2022/05/02 12:24:11;;;;;;;9.13;5.90;;;;;;;19.94;36.01;100763.77;1732923;81;21575;-73
2022/05/02 12:26:51;;;;;;;9.40;5.15;;;;;;;19.91;35.91;100764.19;1750510;81;21489;-73
2022/05/02 12:29:19;;;;;;;6.62;4.62;;;;;;;19.77;35.69;100757.78;1742807;81;21511;-73
2022/05/02 12:32:07;;;;;;;18.52;5.12;;;;;;;19.73;35.72;100756.05;1729854;82;21067;-73
2022/05/02 12:34:44;;;;;;;8.83;4.28;;;;;;;19.78;35.76;100749.42;1730075;82;21527;-73
2022/05/02 12:37:32;;;;;;;7.83;4.42;;;;;;;19.86;35.69;100742.91;1730297;82;21008;-72
2022/05/02 12:40:12;;;;;;;6.45;4.28;;;;;;;19.86;35.64;100740.20;1741902;81;21808;-73
2022/05/02 12:42:53;;;;;;;8.03;4.85;;;;;;;19.92;35.68;100739.30;1729965;82;21019;-73
2022/05/02 12:45:20;;;;;;;8.50;4.53;;;;;;;19.76;35.60;100729.88;1714755;82;20993;-73
2022/05/02 12:47:56;;;;;;;9.48;5.00;;;;;;;19.70;35.57;100732.66;1714639;83;21015;-73
2022/05/02 12:50:25;;;;;;;10.28;5.22;;;;;;;19.66;35.47;100728.72;1730014;81;21019;-73
2022/05/02 12:52:56;;;;;;;9.00;5.17;;;;;;;19.68;35.49;100722.03;1720390;82;21069;-73
2022/05/02 12:55:30;;;;;;;6.10;4.28;;;;;;;19.69;35.50;100717.45;1740229;81;20996;-72
2022/05/02 13:00:44;;;;;;;6.90;4.78;;;;;;;19.63;35.46;100708.36;1748496;81;21031;-73
2022/05/02 13:03:18;;;;;;;8.33;4.28;;;;;;;19.64;35.42;100705.93;1744987;80;21032;-73
2022/05/02 13:05:54;;;;;;;9.13;4.53;;;;;;;19.76;35.43;100702.81;1736431;81;21955;-73
2022/05/02 13:08:36;;;;;;;8.75;3.95;;;;;;;19.78;35.34;100699.88;1722691;81;21017;-73
2022/05/02 13:11:21;;;;;;;8.48;3.80;;;;;;;19.74;35.37;100701.36;1713520;83;21560;-73
2022/05/02 13:13:50;;;;;;;7.87;4.05;;;;;;;19.75;35.37;100697.61;1755857;80;21030;-72
2022/05/02 13:16:31;;;;;;;10.93;4.25;;;;;;;19.74;35.33;100695.95;1759920;80;21004;-72
2022/05/02 13:19:03;;;;;;;5.85;4.50;;;;;;;19.67;35.26;100693.83;1754631;80;21166;-72
2022/05/02 13:21:29;;;;;;;8.58;4.00;;;;;;;19.56;35.25;100688.64;1742703;82;21535;-72
2022/05/02 13:23:57;;;;;;;9.48;4.30;;;;;;;19.62;35.27;100689.62;1743331;82;21572;-72
2022/05/02 13:26:56;;;;;;;6.22;3.83;;;;;;;19.68;35.23;100691.44;1746300;80;21046;-72
2022/05/02 13:30:03;;;;;;;9.78;4.25;;;;;;;19.74;35.20;100681.89;1739933;80;21038;-72
2022/05/02 13:32:52;;;;;;;6.80;4.72;;;;;;;19.78;35.20;100680.92;1742401;80;21607;-73
2022/05/02 13:35:25;;;;;;;6.17;4.10;;;;;;;19.84;35.24;100674.09;1743116;82;20988;-73
2022/05/02 13:38:01;;;;;;;17.75;4.80;;;;;;;19.91;35.26;100669.44;1724078;81;21552;-73
2022/05/02 13:41:25;;;;;;;11.95;4.53;;;;;;;19.98;35.27;100657.21;1777826;80;21090;-73
2022/05/02 13:44:03;;;;;;;6.50;4.03;;;;;;;20.07;35.29;100657.72;1742794;82;21012;-73
2022/05/02 13:46:44;;;;;;;6.15;4.28;;;;;;;20.01;35.25;100658.63;1742618;82;21427;-73
2022/05/02 13:49:25;;;;;;;7.58;3.80;;;;;;;19.98;35.26;100658.56;1742908;82;21309;-73
2022/05/02 13:51:59;;;;;;;8.18;4.20;;;;;;;19.79;35.17;100658.23;1742848;82;21027;-73
2022/05/02 13:54:28;;;;;;;6.25;4.30;;;;;;;19.51;35.20;100649.75;1702033;82;21313;-73
2022/05/02 13:57:19;;;;;;;7.78;3.83;;;;;;;19.44;35.29;100647.95;1743286;82;21082;-73
2022/05/02 14:03:17;;;;;;;16.37;12.05;;;;;;;19.55;35.35;100646.91;1742934;82;21487;-73
2022/05/02 14:05:57;;;;;;;9.45;5.33;;;;;;;19.60;35.39;100643.03;1742789;82;21074;-73
2022/05/02 14:08:12;;;;;;;10.00;4.17;;;;;;;19.59;35.42;100642.72;1718425;82;21074;-74
2022/05/02 14:10:52;;;;;;;8.90;4.30;;;;;;;19.60;35.44;100643.03;1743036;82;20956;-73
2022/05/02 14:13:19;;;;;;;5.85;3.80;;;;;;;19.71;35.49;100643.63;1740736;82;21149;-73
2022/05/02 14:15:46;;;;;;;8.78;3.87;;;;;;;19.82;35.46;100638.83;1740026;82;21004;-73
2022/05/02 14:18:16;;;;;;;7.33;3.90;;;;;;;19.83;35.35;100640.50;1740487;82;20911;-73
2022/05/02 14:20:40;;;;;;;7.60;4.10;;;;;;;19.69;35.37;100641.16;1740054;81;21966;-74
2022/05/02 14:23:08;;;;;;;8.33;3.92;;;;;;;19.73;35.36;100637.48;1740463;82;20999;-73
2022/05/02 14:25:38;;;;;;;10.28;4.65;;;;;;;19.77;35.34;100640.84;1740250;82;21831;-73
2022/05/02 14:28:13;;;;;;;5.37;4.12;;;;;;;19.80;35.28;100630.12;1740529;82;21078;-73
2022/05/02 14:30:42;;;;;;;6.25;3.65;;;;;;;19.82;35.21;100633.41;1740215;82;21645;-73
2022/05/02 14:33:14;;;;;;;6.10;3.37;;;;;;;19.82;35.13;100628.00;1740554;82;20991;-73
2022/05/02 14:35:42;;;;;;;7.47;3.90;;;;;;;19.82;35.11;100627.48;1740380;81;21042;-73
2022/05/02 14:38:14;;;;;;;8.30;4.92;;;;;;;19.80;35.11;100624.70;1740272;82;21791;-73
2022/05/02 14:40:43;;;;;;;7.20;4.17;;;;;;;19.80;35.04;100622.00;1740496;82;21698;-74
2022/05/02 14:43:11;;;;;;;7.62;4.50;;;;;;;19.85;35.06;100623.48;1740288;82;28230;-73
2022/05/02 14:45:37;;;;;;;10.85;4.03;;;;;;;19.86;35.02;100619.73;1740183;82;21042;-73
2022/05/02 14:48:06;;;;;;;5.22;3.58;;;;;;;19.80;34.98;100620.13;1740324;82;21059;-73
2022/05/02 14:50:33;;;;;;;7.33;4.37;;;;;;;19.83;34.99;100612.91;1740053;82;21129;-73
2022/05/02 14:53:04;;;;;;;7.03;4.15;;;;;;;19.88;35.01;100605.44;1740211;81;20984;-73
2022/05/02 14:55:30;;;;;;;6.87;5.47;;;;;;;19.92;35.03;100608.00;1719786;82;21071;-73
2022/05/02 14:57:57;;;;;;;8.75;3.75;;;;;;;19.85;35.05;100600.48;1740292;82;21477;-73
2022/05/02 15:00:23;;;;;;;10.05;4.08;;;;;;;19.88;35.03;100602.21;1740123;81;21071;-73
2022/05/02 15:02:50;;;;;;;16.00;4.47;;;;;;;19.84;34.94;100596.14;1740336;82;21106;-73
2022/05/02 15:05:20;;;;;;;5.55;4.37;;;;;;;19.78;34.91;100592.95;1740291;81;21048;-73
2022/05/02 15:08:05;;;;;;;7.55;4.80;;;;;;;19.82;34.99;100595.52;1739961;82;21019;-73
2022/05/02 15:10:54;;;;;;;18.37;4.62;;;;;;;19.80;34.97;100589.52;1732698;82;21067;-73
2022/05/02 15:13:45;;;;;;;5.95;3.70;;;;;;;19.78;34.99;100587.02;1743206;81;21114;-73
2022/05/02 15:16:40;;;;;;;13.78;5.87;;;;;;;19.76;34.99;100588.31;1743432;79;21219;-73
2022/05/02 15:19:42;;;;;;;12.88;7.70;;;;;;;19.69;34.98;100595.16;1749394;81;21015;-73
2022/05/02 15:22:30;;;;;;;16.60;8.70;;;;;;;19.50;35.02;100588.58;1749924;81;21498;-73
2022/05/02 15:25:12;;;;;;;10.38;4.78;;;;;;;19.40;35.18;100587.19;1750386;82;21004;-73
2022/05/02 15:39:14;;;;;;;7.10;6.30;;;;;;;19.37;35.18;100576.81;1749605;81;21375;-73
2022/05/02 15:41:46;;;;;;;10.43;7.97;;;;;;;19.26;35.22;100573.48;1749904;82;21050;-73
2022/05/02 15:44:35;;;;;;;7.05;4.45;;;;;;;19.14;35.20;100575.24;1749839;81;21183;-73
2022/05/02 15:47:05;;;;;;;10.00;5.78;;;;;;;19.01;35.21;100567.26;1749814;81;21085;-73
2022/05/02 15:49:39;;;;;;;;;;;;;;;18.87;35.24;100567.05;1752468;82;21002;-73
2022/05/02 15:52:13;;;;;;;16.52;7.55;;;;;;;18.77;35.28;100565.38;1749770;82;20155;-73
2022/05/02 15:55:02;;;;;;;38.00;19.25;;;;;;;18.71;35.34;100565.73;1748954;81;21019;-73
2022/05/02 15:57:46;;;;;;;22.07;12.85;;;;;;;18.73;35.47;100564.15;1748024;80;21095;-73
2022/05/02 16:00:27;;;;;;;18.85;10.23;;;;;;;18.83;35.56;100561.78;1746363;80;21014;-73
2022/05/02 16:03:10;;;;;;;12.28;6.80;;;;;;;18.96;35.58;100553.59;1736831;80;21039;-73
2022/05/02 16:05:54;;;;;;;14.30;8.05;;;;;;;19.05;35.57;100551.42;1718794;81;21007;-73
2022/05/02 16:11:09;;;;;;;13.25;6.62;;;;;;;19.13;35.54;100549.28;1734663;81;22317;-73
2022/05/02 16:13:44;;;;;;;11.78;6.40;;;;;;;19.05;35.58;100552.77;1748989;79;21046;-74
2022/05/02 16:16:22;;;;;;;13.75;6.55;;;;;;;18.98;35.61;100550.13;1746875;80;21081;-73
2022/05/02 16:18:51;;;;;;;8.80;5.60;;;;;;;18.90;35.65;100549.05;1748170;80;21046;-73
2022/05/02 16:21:22;;;;;;;17.10;6.07;;;;;;;18.80;35.71;100555.47;1748078;81;21006;-73
2022/05/02 16:23:48;;;;;;;13.85;7.83;;;;;;;18.75;35.91;100553.97;1750100;82;21085;-73
2022/05/02 16:26:14;;;;;;;12.20;6.67;;;;;;;18.77;35.89;100550.52;1747463;82;21787;-73
2022/05/02 16:28:48;;;;;;;11.63;6.25;;;;;;;18.81;35.93;100543.62;1746281;80;21055;-73
2022/05/02 16:31:14;;;;;;;13.50;7.28;;;;;;;18.78;35.95;100544.06;1738770;82;21487;-73
2022/05/02 16:33:40;;;;;;;12.70;7.47;;;;;;;18.81;36.04;100538.22;1723876;82;21075;-73
2022/05/02 16:36:06;;;;;;;6.65;5.05;;;;;;;18.84;36.03;100537.77;1753714;80;21127;-73
2022/05/02 16:38:36;;;;;;;11.40;5.85;;;;;;;18.79;36.05;100538.95;1750361;80;21117;-73
2022/05/02 16:41:08;;;;;;;11.63;5.28;;;;;;;18.72;36.06;100542.22;1751221;80;21059;-73
2022/05/02 16:43:35;;;;;;;7.80;5.45;;;;;;;18.71;36.09;100536.53;1745620;82;21027;-73
2022/05/02 16:46:04;;;;;;;7.92;5.72;;;;;;;18.71;36.05;100541.94;1746111;80;21094;-73
2022/05/02 16:48:30;;;;;;;9.85;5.70;;;;;;;18.68;36.03;100535.63;1743971;81;21203;-73
2022/05/02 16:50:56;;;;;;;10.38;6.80;;;;;;;18.63;35.97;100536.27;1744607;80;21051;-73
2022/05/02 16:53:22;;;;;;;8.20;6.15;;;;;;;18.55;35.97;100538.40;1747589;80;21010;-73
2022/05/02 16:55:48;;;;;;;11.93;7.30;;;;;;;18.47;36.01;100534.88;1749925;82;20995;-73
2022/05/02 16:58:21;;;;;;;8.40;5.80;;;;;;;18.47;36.07;100528.13;1749829;80;21087;-73
2022/05/02 17:00:56;;;;;;;8.93;5.65;;;;;;;18.44;36.09;100529.92;1744755;80;21087;-72
2022/05/02 17:03:30;;;;;;;9.93;5.50;;;;;;;18.38;36.11;100533.50;1746972;82;21088;-72
2022/05/02 17:06:07;;;;;;;16.75;6.17;;;;;;;18.25;36.18;100529.54;1757894;80;21046;-73
2022/05/02 17:08:37;;;;;;;10.45;6.55;;;;;;;18.16;36.23;100532.17;1755717;80;21003;-72
2022/05/02 17:11:05;;;;;;;11.05;6.62;;;;;;;18.09;36.31;100532.72;1745655;80;21066;-73
2022/05/02 17:13:31;;;;;;;17.30;7.22;;;;;;;18.02;36.39;100540.02;1747628;80;21524;-73
2022/05/02 17:16:18;;;;;;;12.43;7.37;;;;;;;17.93;36.48;100530.53;1743682;82;21488;-73
2022/05/02 17:19:07;;;;;;;11.15;6.90;;;;;;;17.86;36.58;100537.31;1744751;80;21060;-73
2022/05/02 17:21:51;;;;;;;18.05;6.95;;;;;;;17.77;36.70;100533.69;1750009;80;21063;-73
2022/05/02 17:24:18;;;;;;;12.85;6.15;;;;;;;17.65;36.84;100529.50;1761651;80;21014;-73
2022/05/02 17:26:51;;;;;;;16.77;7.20;;;;;;;17.56;36.98;100531.27;1748023;80;21224;-73
2022/05/02 17:29:21;;;;;;;13.05;6.12;;;;;;;17.48;37.10;100529.11;1745443;80;21061;-73
2022/05/02 17:31:54;;;;;;;17.35;7.70;;;;;;;17.43;37.22;100525.37;1748677;80;21050;-73
2022/05/02 17:34:23;;;;;;;12.70;6.85;;;;;;;17.38;37.36;100530.05;1748835;81;20992;-72
2022/05/02 17:36:58;;;;;;;24.37;8.80;;;;;;;17.30;37.49;100528.94;1749320;80;21116;-72
2022/05/02 17:39:29;;;;;;;18.92;8.50;;;;;;;17.22;37.62;100535.06;1747202;80;21144;-73
2022/05/02 17:42:06;;;;;;;18.48;9.28;;;;;;;17.13;37.87;100541.20;1747249;80;22204;-73
2022/05/02 17:44:36;;;;;;;31.80;16.87;;;;;;;17.00;38.20;100538.50;1744019;80;21006;-73
2022/05/02 17:47:05;;;;;;;27.00;12.63;;;;;;;16.87;38.52;100544.73;1767516;80;21604;-72
2022/05/02 17:49:34;;;;;;;31.45;13.15;;;;;;;16.77;38.78;100538.09;1773869;79;21012;-73
2022/05/02 17:52:01;;;;;;;39.80;13.75;;;;;;;16.67;39.10;100541.72;1757897;80;21780;-73
2022/05/02 17:54:28;;;;;;;28.27;14.87;;;;;;;16.53;39.42;100546.75;1748355;80;21468;-73
2022/05/02 17:56:57;;;;;;;35.88;16.30;;;;;;;16.39;39.74;100548.08;1746741;82;21047;-73
2022/05/02 17:59:25;;;;;;;42.53;19.23;;;;;;;16.28;40.01;100548.66;1724506;80;21125;-73
2022/05/02 18:02:04;;;;;;;33.70;17.32;;;;;;;16.18;40.37;100548.73;1755590;80;21070;-73
2022/05/02 18:04:30;;;;;;;43.90;21.52;;;;;;;16.08;40.64;100544.26;1749929;82;21144;-73